createdAt,value
2017-08-03T00:00:57.401Z,20.40
2017-08-03T00:03:59.546Z,20.60
2017-08-03T00:07:01.026Z,19.70
2017-08-03T00:10:02.534Z,19.80
2017-08-03T00:13:04.781Z,20.40
2017-08-03T00:16:06.224Z,19.20
2017-08-03T00:19:07.689Z,20.50
2017-08-03T00:22:09.290Z,19.80
2017-08-03T00:25:10.714Z,20.60
2017-08-03T00:28:12.407Z,20.60
2017-08-03T00:31:14.614Z,20.50
2017-08-03T00:34:16.072Z,19.40
2017-08-03T00:37:17.489Z,19.90
2017-08-03T00:40:19.707Z,20.40
2017-08-03T00:43:21.141Z,20.60
2017-08-03T00:46:22.623Z,20.40
2017-08-03T00:49:23.999Z,19.50
2017-08-03T00:52:25.418Z,20.50
2017-08-03T00:55:26.818Z,19.60
2017-08-03T00:58:29.042Z,20.50
2017-08-03T01:01:30.529Z,19.70
2017-08-03T01:04:31.923Z,20.30
2017-08-03T01:07:33.400Z,20.40
2017-08-03T01:10:34.835Z,19.40
2017-08-03T01:13:36.255Z,20.10
2017-08-03T01:16:38.418Z,20.40
2017-08-03T01:19:40.619Z,20.40
2017-08-03T01:22:41.999Z,20.40
2017-08-03T01:25:43.483Z,20.40
2017-08-03T01:28:45.038Z,19.70
2017-08-03T01:31:47.271Z,20.40
2017-08-03T01:34:49.166Z,20.30
2017-08-03T01:37:50.644Z,20.40
2017-08-03T01:40:52.903Z,20.30
2017-08-03T01:43:55.082Z,20.30
2017-08-03T01:47:12.213Z,20.30
2017-08-03T01:50:13.695Z,19.70
2017-08-03T01:53:15.211Z,20.30
2017-08-03T01:56:17.414Z,20.30
2017-08-03T01:59:18.875Z,20.20
2017-08-03T02:02:20.401Z,21.00
2017-08-03T02:05:21.938Z,20.40
2017-08-03T02:08:23.388Z,19.40
2017-08-03T02:11:25.655Z,20.30
2017-08-03T02:14:27.107Z,20.20
2017-08-03T02:17:29.346Z,20.30
2017-08-03T02:20:30.826Z,20.40
2017-08-03T02:23:32.999Z,20.30
2017-08-03T02:26:35.179Z,20.30
2017-08-03T02:29:37.334Z,20.30
2017-08-03T02:32:39.587Z,20.30
2017-08-03T02:35:41.024Z,19.80
2017-08-03T02:38:42.495Z,19.60
2017-08-03T02:41:43.916Z,20.10
2017-08-03T02:44:45.394Z,20.30
2017-08-03T02:47:46.800Z,20.30
2017-08-03T02:50:48.227Z,19.40
2017-08-03T02:53:50.402Z,20.20
2017-08-03T02:56:52.610Z,20.20
2017-08-03T02:59:54.007Z,19.80
2017-08-03T03:02:55.430Z,19.70
2017-08-03T03:05:56.991Z,20.30
2017-08-03T03:08:58.427Z,20.20
2017-08-03T03:11:59.910Z,20.30
2017-08-03T03:15:01.355Z,19.40
2017-08-03T03:18:02.815Z,19.90
2017-08-03T03:21:04.330Z,19.80
2017-08-03T03:24:05.818Z,20.10
2017-08-03T03:27:07.243Z,19.20
2017-08-03T03:30:08.680Z,20.30
2017-08-03T03:33:10.148Z,19.60
2017-08-03T03:36:11.590Z,19.50
2017-08-03T03:39:13.038Z,19.40
2017-08-03T03:42:14.490Z,20.30
2017-08-03T03:45:15.987Z,20.30
2017-08-03T03:48:17.437Z,20.30
2017-08-03T03:51:18.941Z,19.90
2017-08-03T03:54:20.379Z,20.10
2017-08-03T03:57:22.589Z,20.20
2017-08-03T04:00:24.047Z,19.30
2017-08-03T04:03:25.630Z,20.20
2017-08-03T04:06:27.105Z,20.20
2017-08-03T04:09:36.397Z,20.20
2017-08-03T04:12:37.850Z,20.30
2017-08-03T04:15:39.276Z,19.10
2017-08-03T04:18:40.730Z,20.30
2017-08-03T04:21:42.158Z,20.00
2017-08-03T04:24:44.323Z,20.00
2017-08-03T04:27:46.482Z,20.10
2017-08-03T04:30:48.706Z,20.20
2017-08-03T04:33:50.207Z,20.00
2017-08-03T04:36:52.397Z,20.20
2017-08-03T04:39:53.857Z,19.20
2017-08-03T04:42:55.319Z,20.10
2017-08-03T04:45:56.798Z,19.80
2017-08-03T04:48:58.273Z,20.20
2017-08-03T04:51:59.718Z,20.10
2017-08-03T04:55:01.218Z,20.20
2017-08-03T04:58:02.686Z,20.20
2017-08-03T05:01:04.136Z,20.00
2017-08-03T05:04:05.633Z,19.80
2017-08-03T05:07:07.047Z,19.90
2017-08-03T05:10:08.515Z,20.10
2017-08-03T05:13:09.973Z,20.10
2017-08-03T05:16:11.400Z,20.10
2017-08-03T05:19:12.863Z,20.10
2017-08-03T05:22:14.300Z,20.20
2017-08-03T05:25:15.749Z,19.60
2017-08-03T05:28:17.379Z,20.20
2017-08-03T05:31:19.493Z,20.20
2017-08-03T05:34:20.879Z,20.10
2017-08-03T05:37:22.250Z,20.30
2017-08-03T05:40:24.363Z,20.30
2017-08-03T05:43:25.760Z,20.30
2017-08-03T05:46:27.242Z,20.30
2017-08-03T05:49:28.567Z,20.30
2017-08-03T05:52:30.698Z,20.40
2017-08-03T05:55:32.123Z,20.30
2017-08-03T05:58:33.558Z,20.40
2017-08-03T06:01:34.912Z,20.40
2017-08-03T06:04:36.282Z,20.40
2017-08-03T06:07:37.687Z,20.40
2017-08-03T06:10:39.811Z,20.40
2017-08-03T06:13:41.584Z,20.40
2017-08-03T06:16:42.970Z,20.30
2017-08-03T06:19:45.558Z,20.40
2017-08-03T06:22:47.099Z,20.40
2017-08-03T06:25:49.306Z,20.30
2017-08-03T06:28:50.717Z,20.80
2017-08-03T06:31:52.207Z,20.10
2017-08-03T06:34:53.634Z,20.70
2017-08-03T06:37:55.905Z,20.40
2017-08-03T06:40:58.001Z,20.40
2017-08-03T06:43:59.358Z,20.40
2017-08-03T06:47:00.674Z,20.40
2017-08-03T06:50:02.153Z,20.40
2017-08-03T06:53:03.555Z,20.50
2017-08-03T06:56:05.680Z,20.50
2017-08-03T06:59:07.042Z,20.60
2017-08-03T07:02:08.393Z,20.60
2017-08-03T07:05:09.792Z,20.60
2017-08-03T07:08:11.175Z,20.80
2017-08-03T07:11:12.766Z,20.70
2017-08-03T07:14:14.206Z,20.80
2017-08-03T07:17:15.682Z,20.80
2017-08-03T07:20:17.834Z,20.90
2017-08-03T07:23:19.228Z,20.80
2017-08-03T07:26:20.830Z,20.90
2017-08-03T07:29:22.190Z,21.00
2017-08-03T07:32:23.698Z,21.10
2017-08-03T07:35:25.168Z,21.10
2017-08-03T07:38:26.550Z,21.10
2017-08-03T07:41:27.926Z,21.20
2017-08-03T07:44:30.071Z,21.40
2017-08-03T07:47:31.455Z,21.30
2017-08-03T07:50:33.568Z,21.40
2017-08-03T07:53:34.958Z,21.40
2017-08-03T07:56:37.057Z,21.80
2017-08-03T07:59:38.405Z,21.70
2017-08-03T08:02:39.844Z,21.70
2017-08-03T08:05:41.145Z,21.70
2017-08-03T08:08:42.474Z,21.80
2017-08-03T08:11:43.815Z,21.70
2017-08-03T08:14:45.124Z,21.60
2017-08-03T08:17:47.234Z,21.60
2017-08-03T08:20:48.551Z,21.50
2017-08-03T08:23:49.933Z,21.50
2017-08-03T08:26:51.252Z,21.60
2017-08-03T08:29:52.625Z,21.50
2017-08-03T08:32:53.980Z,21.50
2017-08-03T08:35:55.360Z,21.40
2017-08-03T08:38:56.673Z,21.40
2017-08-03T08:41:58.029Z,21.30
2017-08-03T08:44:59.353Z,21.30
2017-08-03T08:48:00.731Z,21.20
2017-08-03T08:51:02.055Z,21.30
2017-08-03T08:54:03.454Z,21.40
2017-08-03T08:57:04.936Z,21.40
2017-08-03T09:00:07.017Z,21.50
2017-08-03T09:03:08.391Z,21.40
2017-08-03T09:06:09.721Z,21.40
2017-08-03T09:09:11.155Z,21.30
2017-08-03T09:12:12.558Z,21.30
2017-08-03T09:15:13.981Z,21.20
2017-08-03T09:18:15.327Z,21.60
2017-08-03T09:21:16.842Z,21.70
2017-08-03T09:24:18.195Z,20.90
2017-08-03T09:27:19.649Z,21.70
2017-08-03T09:30:21.855Z,21.80
2017-08-03T09:33:23.297Z,21.80
2017-08-03T09:36:24.691Z,21.90
2017-08-03T09:39:26.100Z,21.80
2017-08-03T09:42:27.460Z,21.80
2017-08-03T09:45:28.851Z,21.90
2017-08-03T09:48:30.245Z,21.80
2017-08-03T09:51:32.379Z,21.80
2017-08-03T09:54:33.730Z,21.70
2017-08-03T09:57:35.116Z,21.80
2017-08-03T10:00:37.245Z,21.80
2017-08-03T10:03:38.652Z,21.80
2017-08-03T10:06:40.052Z,22.00
2017-08-03T10:09:41.410Z,22.30
2017-08-03T10:12:42.739Z,22.50
2017-08-03T10:15:44.037Z,22.70
2017-08-03T10:18:46.142Z,23.10
2017-08-03T10:21:47.468Z,23.10
2017-08-03T10:24:48.843Z,23.30
2017-08-03T10:27:50.163Z,23.30
2017-08-03T10:30:51.692Z,23.40
2017-08-03T10:33:53.843Z,23.50
2017-08-03T10:36:55.192Z,23.50
2017-08-03T10:39:56.547Z,23.50
2017-08-03T10:42:57.900Z,23.30
2017-08-03T10:45:59.245Z,23.20
2017-08-03T10:49:00.633Z,23.20
2017-08-03T10:52:01.940Z,23.10
2017-08-03T10:55:03.294Z,22.90
2017-08-03T10:58:04.607Z,22.70
2017-08-03T11:01:06.014Z,22.50
2017-08-03T11:04:08.110Z,22.40
2017-08-03T11:07:09.457Z,22.30
2017-08-03T11:10:10.977Z,22.50
2017-08-03T11:13:13.447Z,22.20
2017-08-03T11:16:15.354Z,22.20
2017-08-03T11:19:16.799Z,22.20
2017-08-03T11:22:18.167Z,22.20
2017-08-03T11:25:19.618Z,22.10
2017-08-03T11:28:23.992Z,22.00
2017-08-03T11:31:25.467Z,22.00
2017-08-03T11:34:27.364Z,22.00
2017-08-03T11:37:28.720Z,21.90
2017-08-03T11:40:30.782Z,21.80
2017-08-03T11:43:32.935Z,21.70
2017-08-03T11:46:35.302Z,21.80
2017-08-03T11:49:36.675Z,21.70
2017-08-03T11:52:38.928Z,21.90
2017-08-03T11:55:40.360Z,21.80
2017-08-03T11:58:41.859Z,22.00
2017-08-03T12:01:43.974Z,21.80
2017-08-03T12:04:45.362Z,21.50
2017-08-03T12:07:46.678Z,21.70
2017-08-03T12:10:48.350Z,21.60
2017-08-03T12:13:49.899Z,21.90
2017-08-03T12:16:51.447Z,22.40
2017-08-03T12:19:52.823Z,22.80
2017-08-03T12:22:54.161Z,23.20
2017-08-03T12:25:56.559Z,22.90
2017-08-03T12:28:57.874Z,22.80
2017-08-03T12:31:59.232Z,23.00
2017-08-03T12:35:01.353Z,23.30
2017-08-03T12:38:02.701Z,23.30
2017-08-03T12:41:04.074Z,23.30
2017-08-03T12:44:06.184Z,23.40
2017-08-03T12:47:07.482Z,23.30
2017-08-03T12:50:08.836Z,23.60
2017-08-03T12:53:10.175Z,23.90
2017-08-03T12:56:11.513Z,23.80
2017-08-03T12:59:12.872Z,23.50
2017-08-03T13:02:14.231Z,23.20
2017-08-03T13:05:15.706Z,23.10
2017-08-03T13:08:32.037Z,23.00
2017-08-03T13:11:33.444Z,23.20
2017-08-03T13:14:34.776Z,23.20
2017-08-03T13:17:36.146Z,23.50
2017-08-03T13:20:37.503Z,23.50
2017-08-03T13:23:38.877Z,23.40
2017-08-03T13:26:41.070Z,24.10
2017-08-03T13:29:42.418Z,24.10
2017-08-03T13:32:43.777Z,24.50
2017-08-03T13:35:45.115Z,24.80
2017-08-03T13:38:46.461Z,24.90
2017-08-03T13:41:47.776Z,25.00
2017-08-03T13:44:49.136Z,25.30
2017-08-03T13:47:50.468Z,25.50
2017-08-03T13:50:51.806Z,25.80
2017-08-03T13:53:53.913Z,25.70
2017-08-03T13:56:55.297Z,25.70
2017-08-03T13:59:56.869Z,25.50
2017-08-03T14:02:58.959Z,25.40
2017-08-03T14:06:00.313Z,24.60
2017-08-03T14:09:01.704Z,25.20
2017-08-03T14:12:03.030Z,25.00
2017-08-03T14:15:04.437Z,24.90
2017-08-03T14:18:05.733Z,24.90
2017-08-03T14:21:07.051Z,24.80
2017-08-03T14:24:09.084Z,24.70
2017-08-03T14:27:10.439Z,24.60
2017-08-03T14:30:11.745Z,24.80
2017-08-03T14:33:13.103Z,24.90
2017-08-03T14:36:14.857Z,25.10
2017-08-03T14:39:16.221Z,25.10
2017-08-03T14:42:17.575Z,25.20
2017-08-03T14:45:18.925Z,25.30
2017-08-03T14:48:20.302Z,25.00
2017-08-03T14:51:21.627Z,25.10
2017-08-03T14:54:22.978Z,25.20
2017-08-03T14:57:24.343Z,25.30
2017-08-03T15:00:25.706Z,25.30
2017-08-03T15:03:27.361Z,25.10
2017-08-03T15:06:28.716Z,24.90
2017-08-03T15:09:30.368Z,25.20
2017-08-03T15:12:31.790Z,25.20
2017-08-03T15:15:33.211Z,24.90
2017-08-03T15:18:34.802Z,24.60
2017-08-03T15:21:36.370Z,24.40
2017-08-03T15:24:37.859Z,24.60
2017-08-03T15:27:39.292Z,24.50
2017-08-03T15:30:40.698Z,25.30
2017-08-03T15:33:42.593Z,25.20
2017-08-03T15:36:44.052Z,24.60
2017-08-03T15:39:45.573Z,24.90
2017-08-03T15:42:47.153Z,24.80
2017-08-03T15:45:48.666Z,23.40
2017-08-03T15:48:50.976Z,24.90
2017-08-03T15:51:52.350Z,25.30
2017-08-03T15:54:53.827Z,25.20
2017-08-03T15:57:55.193Z,24.70
2017-08-03T16:00:57.323Z,24.60
2017-08-03T16:03:58.648Z,24.60
2017-08-03T16:07:00.769Z,24.50
2017-08-03T16:10:02.926Z,24.40
2017-08-03T16:13:04.316Z,24.40
2017-08-03T16:16:05.663Z,24.20
2017-08-03T16:19:07.020Z,24.20
2017-08-03T16:22:09.347Z,24.10
2017-08-03T16:25:10.729Z,23.90
2017-08-03T16:28:12.891Z,24.10
2017-08-03T16:31:14.974Z,24.10
2017-08-03T16:34:16.336Z,24.10
2017-08-03T16:37:17.696Z,24.00
2017-08-03T16:40:19.069Z,23.90
2017-08-03T16:43:20.452Z,23.90
2017-08-03T16:46:22.664Z,23.90
2017-08-03T16:49:24.007Z,23.90
2017-08-03T16:52:25.405Z,24.00
2017-08-03T16:55:26.788Z,23.10
2017-08-03T16:58:28.844Z,23.80
2017-08-03T17:01:31.186Z,23.80
2017-08-03T17:04:32.624Z,23.80
2017-08-03T17:07:34.029Z,23.80
2017-08-03T17:10:35.461Z,23.80
2017-08-03T17:13:37.583Z,23.70
2017-08-03T17:16:39.001Z,23.70
2017-08-03T17:19:40.407Z,22.60
2017-08-03T17:22:41.802Z,22.50
2017-08-03T17:25:43.220Z,23.60
2017-08-03T17:28:44.786Z,23.60
2017-08-03T17:31:46.172Z,23.60
2017-08-03T17:34:47.624Z,23.50
2017-08-03T17:37:49.086Z,23.60
2017-08-03T17:40:50.577Z,23.70
2017-08-03T17:43:51.951Z,23.50
2017-08-03T17:46:53.296Z,23.50
2017-08-03T17:49:54.686Z,23.40
2017-08-03T17:52:56.028Z,23.50
2017-08-03T17:55:57.339Z,23.50
2017-08-03T17:58:58.711Z,23.50
2017-08-03T18:02:00.151Z,23.30
2017-08-03T18:05:01.513Z,23.20
2017-08-03T18:08:02.891Z,23.20
2017-08-03T18:11:04.219Z,23.20
2017-08-03T18:14:05.603Z,23.20
2017-08-03T18:17:06.953Z,23.10
2017-08-03T18:20:08.500Z,23.10
2017-08-03T18:23:10.083Z,23.00
2017-08-03T18:26:11.424Z,23.00
2017-08-03T18:29:13.632Z,23.00
2017-08-03T18:32:14.952Z,23.00
2017-08-03T18:35:17.067Z,23.00
2017-08-03T18:38:19.311Z,23.10
2017-08-03T18:41:20.630Z,23.10
2017-08-03T18:44:21.994Z,23.00
2017-08-03T18:47:23.518Z,22.70
2017-08-03T18:50:24.803Z,22.80
2017-08-03T18:53:26.163Z,22.80
2017-08-03T18:56:27.647Z,22.80
2017-08-03T18:59:29.771Z,22.70
2017-08-03T19:02:31.094Z,22.70
2017-08-03T19:05:32.499Z,22.50
2017-08-03T19:08:33.859Z,22.50
2017-08-03T19:11:35.227Z,22.50
2017-08-03T19:14:36.644Z,22.40
2017-08-03T19:17:38.059Z,22.40
2017-08-03T19:20:39.463Z,22.30
2017-08-03T19:23:40.807Z,22.40
2017-08-03T19:26:42.161Z,22.10
2017-08-03T19:29:43.928Z,22.00
2017-08-03T19:32:45.479Z,22.10
2017-08-03T19:35:47.647Z,22.20
2017-08-03T19:38:48.958Z,22.20
2017-08-03T19:41:50.345Z,22.20
2017-08-03T19:44:51.737Z,22.10
2017-08-03T19:47:53.104Z,22.10
2017-08-03T19:50:54.428Z,22.00
2017-08-03T19:53:56.548Z,22.10
2017-08-03T19:56:57.914Z,22.10
2017-08-03T19:59:59.228Z,22.10
2017-08-03T20:03:00.619Z,21.90
2017-08-03T20:06:01.986Z,21.80
2017-08-03T20:09:09.470Z,21.80
2017-08-03T20:12:12.574Z,21.90
2017-08-03T20:15:14.004Z,21.90
2017-08-03T20:18:15.464Z,22.50
2017-08-03T20:21:17.049Z,21.80
2017-08-03T20:24:18.567Z,21.70
2017-08-03T20:27:20.988Z,21.80
2017-08-03T20:30:22.754Z,21.70
2017-08-03T20:33:24.133Z,21.90
2017-08-03T20:36:26.385Z,21.80
2017-08-03T20:39:28.474Z,21.80
2017-08-03T20:42:30.666Z,21.80
2017-08-03T20:45:32.050Z,21.80
2017-08-03T20:48:33.434Z,21.80
2017-08-03T20:51:35.506Z,21.80
2017-08-03T20:54:37.670Z,21.80
2017-08-03T20:57:40.001Z,21.60
2017-08-03T21:00:41.376Z,21.60
2017-08-03T21:03:42.809Z,21.60
2017-08-03T21:06:44.158Z,21.60
2017-08-03T21:09:45.548Z,21.70
2017-08-03T21:12:47.631Z,21.60
2017-08-03T21:15:49.067Z,21.60
2017-08-03T21:18:51.165Z,21.50
2017-08-03T21:21:52.570Z,21.50
2017-08-03T21:24:54.794Z,21.50
2017-08-03T21:27:56.185Z,21.50
2017-08-03T21:30:57.613Z,21.40
2017-08-03T21:33:58.998Z,21.30
2017-08-03T21:37:00.469Z,21.40
2017-08-03T21:40:02.572Z,21.20
2017-08-03T21:43:03.967Z,21.30
2017-08-03T21:46:05.311Z,21.40
2017-08-03T21:49:06.714Z,21.40
2017-08-03T21:52:08.041Z,21.90
2017-08-03T21:55:10.193Z,21.30
2017-08-03T21:58:12.339Z,21.20
2017-08-03T22:01:15.655Z,21.20
2017-08-03T22:04:17.042Z,21.60
2017-08-03T22:07:18.427Z,21.20
2017-08-03T22:10:19.811Z,21.20
2017-08-03T22:13:21.264Z,21.10
2017-08-03T22:16:23.428Z,21.10
2017-08-03T22:19:24.841Z,21.10
2017-08-03T22:25:34.223Z,21.00
2017-08-03T22:28:35.587Z,20.80
2017-08-03T22:31:36.982Z,20.90
2017-08-03T22:34:38.316Z,20.80
2017-08-03T22:37:39.747Z,20.90
2017-08-03T22:40:41.906Z,20.80
2017-08-03T22:43:43.291Z,20.80
2017-08-03T22:46:45.394Z,20.90
2017-08-03T22:49:46.790Z,20.80
2017-08-03T22:52:48.263Z,20.90
2017-08-03T22:55:50.322Z,20.80
2017-08-03T22:58:52.422Z,20.80
2017-08-03T23:01:53.792Z,20.60
2017-08-03T23:04:55.188Z,19.90
2017-08-03T23:07:57.285Z,20.60
2017-08-03T23:10:58.657Z,20.60
2017-08-03T23:14:00.032Z,20.50
2017-08-03T23:17:01.449Z,20.70
2017-08-03T23:20:02.902Z,20.70
2017-08-03T23:23:04.257Z,20.50
2017-08-03T23:26:05.634Z,20.50
2017-08-03T23:29:07.009Z,20.70
2017-08-03T23:32:09.108Z,20.70
2017-08-03T23:35:10.569Z,20.70
2017-08-03T23:38:12.027Z,20.60
2017-08-03T23:41:13.382Z,20.60
2017-08-03T23:44:14.819Z,20.50
2017-08-03T23:47:16.566Z,20.50
2017-08-03T23:50:17.952Z,20.60
2017-08-03T23:53:19.341Z,20.70
2017-08-03T23:56:21.445Z,20.50
2017-08-03T23:59:23.325Z,20.50
